Time;durP1;ratioP1;P1;durP2;ratioP2;P2;SDS_P1;SDS_P2;PMS_P1;PMS_P2;Temp;Humidity;BMP_temperature;BMP_pressure;BME280_temperature;BME280_humidity;BME280_pressure;Samples;Min_cycle;Max_cycle;Signal;HPM_P1;HPM_P2
2021/12/06 00:02:26;;;;;;;19.23;9.03;;;;;;;1.85;71.62;100774.72;1874032;76;22557;-61
2021/12/06 00:04:58;;;;;;;18.62;8.20;;;;;;;1.86;71.52;100774.25;1873917;76;22128;-62
2021/12/06 00:07:30;;;;;;;21.17;8.80;;;;;;;1.81;71.54;100771.03;1874040;76;22554;-61
2021/12/06 00:10:02;;;;;;;19.57;8.80;;;;;;;1.81;71.68;100771.88;1873919;76;22133;-61
2021/12/06 00:12:54;;;;;;;18.85;8.08;;;;;;;1.80;71.64;100762.33;1892779;76;22578;-64
2021/12/06 00:15:30;;;;;;;19.48;8.78;;;;;;;1.82;71.66;100766.17;1874028;76;22125;-61
2021/12/06 00:18:00;;;;;;;18.65;7.92;;;;;;;1.77;71.66;100771.18;1874037;76;22142;-64
2021/12/06 00:20:51;;;;;;;18.55;8.10;;;;;;;1.74;71.83;100779.66;1873978;76;22138;-64
2021/12/06 00:23:22;;;;;;;17.25;7.55;;;;;;;1.74;71.96;100777.91;1892800;76;22553;-62
2021/12/06 00:25:56;;;;;;;19.07;8.10;;;;;;;1.75;71.97;100779.59;1874034;76;22163;-62
2021/12/06 00:28:48;;;;;;;18.40;8.00;;;;;;;1.76;71.99;100785.22;1873987;76;22113;-61
2021/12/06 00:31:20;;;;;;;18.85;8.40;;;;;;;1.69;72.01;100786.91;1892800;76;22570;-62
2021/12/06 00:34:15;;;;;;;17.82;7.95;;;;;;;1.67;72.34;100790.93;1892793;76;22161;-61
2021/12/06 00:37:04;;;;;;;18.27;8.10;;;;;;;1.68;72.41;100791.77;1874037;76;22120;-61
2021/12/06 00:39:49;;;;;;;19.12;8.43;;;;;;;1.66;72.50;100794.95;1874001;76;22138;-61
2021/12/06 00:42:24;;;;;;;19.85;8.38;;;;;;;1.69;72.52;100795.61;1892817;76;22578;-61
2021/12/06 00:45:15;;;;;;;21.05;8.83;;;;;;;1.70;72.51;100794.71;1892695;76;22124;-61
2021/12/06 00:47:47;;;;;;;17.23;8.18;;;;;;;1.72;72.61;100805.09;1892818;76;22161;-61
2021/12/06 00:50:40;;;;;;;19.23;8.48;;;;;;;1.75;72.54;100804.48;1873984;76;22586;-64
2021/12/06 00:53:12;;;;;;;19.65;7.65;;;;;;;1.75;72.56;100802.33;1874021;76;22565;-64
2021/12/06 00:55:44;;;;;;;20.35;8.48;;;;;;;1.75;72.52;100793.16;1890356;76;22137;-63
2021/12/06 00:58:35;;;;;;;22.17;8.35;;;;;;;1.76;72.48;100802.70;1874002;76;22129;-62
2021/12/06 01:01:07;;;;;;;19.50;8.58;;;;;;;1.80;72.50;100796.39;1873914;76;22591;-64
2021/12/06 01:03:59;;;;;;;17.60;7.55;;;;;;;1.87;72.45;100795.12;1874019;76;22562;-64
2021/12/06 01:06:31;;;;;;;19.45;7.95;;;;;;;1.94;72.43;100796.97;1892946;76;22139;-64
2021/12/06 01:09:03;;;;;;;17.87;8.15;;;;;;;1.95;72.33;100795.56;1874124;76;22169;-61
2021/12/06 01:11:35;;;;;;;18.98;8.43;;;;;;;1.98;72.27;100795.41;1892709;76;22127;-61
2021/12/06 01:14:06;;;;;;;18.95;8.33;;;;;;;2.01;72.25;100802.25;1892835;76;22144;-61
2021/12/06 01:16:58;;;;;;;19.32;8.90;;;;;;;2.05;72.23;100803.78;1892800;76;22132;-61
2021/12/06 01:19:30;;;;;;;20.27;9.08;;;;;;;2.04;72.12;100809.95;1874149;76;22574;-61
2021/12/06 01:22:22;;;;;;;18.80;8.50;;;;;;;2.01;72.10;100806.18;1874035;76;22150;-62
2021/12/06 01:25:16;;;;;;;19.00;8.43;;;;;;;1.98;72.09;100799.81;1874019;76;22132;-61
2021/12/06 01:30:56;;;;;;;20.53;10.13;;;;;;;1.98;72.12;100797.19;1858115;76;38192;-64
2021/12/06 01:39:20;;;;;;;20.55;9.48;;;;;;;2.02;71.97;100804.81;1874022;76;22117;-62
2021/12/06 01:42:11;;;;;;;18.98;8.88;;;;;;;2.00;72.00;100789.61;1871286;76;22141;-64
2021/12/06 01:45:05;;;;;;;17.95;8.13;;;;;;;2.01;72.05;100786.06;1874019;76;22120;-61
2021/12/06 01:47:38;;;;;;;18.92;8.65;;;;;;;2.02;72.11;100791.70;1874148;76;22120;-61
2021/12/06 01:50:29;;;;;;;18.05;7.95;;;;;;;2.04;72.09;100792.45;1892778;76;22565;-62
2021/12/06 01:53:02;;;;;;;18.20;8.70;;;;;;;2.05;72.05;100794.14;1874151;76;22121;-61
2021/12/06 01:55:53;;;;;;;18.57;8.48;;;;;;;2.07;72.02;100783.59;1873996;76;22128;-62
2021/12/06 01:58:25;;;;;;;18.57;8.35;;;;;;;2.09;72.07;100775.64;1874029;76;22129;-61
2021/12/06 02:00:57;;;;;;;19.77;8.28;;;;;;;2.10;72.08;100774.23;1874025;76;22133;-61
2021/12/06 02:03:28;;;;;;;17.52;7.72;;;;;;;2.15;72.12;100779.23;1874041;76;22125;-63
2021/12/06 02:06:00;;;;;;;17.73;7.20;;;;;;;2.17;71.99;100776.08;1873927;76;22142;-63
2021/12/06 02:08:53;;;;;;;18.98;8.20;;;;;;;2.22;71.92;100782.76;1873981;76;22152;-63
2021/12/06 02:11:27;;;;;;;24.12;11.88;;;;;;;2.23;71.82;100780.98;1874005;76;22140;-61
2021/12/06 02:14:42;;;;;;;30.35;16.65;;;;;;;2.18;71.75;100781.70;1873982;76;22165;-61
2021/12/06 02:17:13;;;;;;;25.60;17.23;;;;;;;2.14;71.74;100779.70;1876622;76;27845;-62
2021/12/06 02:19:53;;;;;;;20.37;9.58;;;;;;;2.25;71.67;100785.19;1874048;76;20201;-63
2021/12/06 02:22:46;;;;;;;17.95;9.00;;;;;;;2.27;71.36;100783.82;1892781;76;22557;-64
2021/12/06 02:25:19;;;;;;;16.65;8.08;;;;;;;2.23;71.47;100783.13;1892829;76;22157;-64
2021/12/06 02:27:52;;;;;;;18.87;8.23;;;;;;;2.24;71.55;100786.13;1874027;76;22136;-64
2021/12/06 02:30:24;;;;;;;17.62;7.80;;;;;;;2.18;71.55;100784.31;1874032;76;22117;-62
2021/12/06 02:32:56;;;;;;;21.12;9.08;;;;;;;2.16;71.74;100794.02;1873920;76;22623;-63
2021/12/06 02:35:28;;;;;;;17.37;7.97;;;;;;;2.18;71.71;100787.78;1874026;76;22158;-62
2021/12/06 02:38:02;;;;;;;19.60;8.85;;;;;;;2.20;71.66;100785.91;1892814;76;22123;-64
2021/12/06 02:40:34;;;;;;;18.85;8.58;;;;;;;2.17;71.46;100784.78;1874007;76;22173;-64
2021/12/06 02:43:09;;;;;;;17.05;8.25;;;;;;;2.09;71.44;100793.98;1874009;76;22178;-64
2021/12/06 02:45:42;;;;;;;19.98;8.50;;;;;;;2.01;71.50;100795.23;1874022;76;22129;-64
2021/12/06 02:48:33;;;;;;;18.40;8.35;;;;;;;1.91;71.69;100794.03;1873966;76;22598;-61
2021/12/06 02:51:06;;;;;;;19.10;7.83;;;;;;;1.88;71.85;100799.42;1874018;76;22148;-61
2021/12/06 02:53:57;;;;;;;18.75;8.00;;;;;;;1.88;71.89;100799.42;1873975;76;22586;-61
2021/12/06 02:56:32;;;;;;;18.27;7.85;;;;;;;1.91;71.97;100807.59;1874039;76;22554;-62
2021/12/06 02:59:07;;;;;;;19.00;8.35;;;;;;;1.87;72.04;100811.30;1892823;76;22590;-64
2021/12/06 03:02:02;;;;;;;19.17;8.35;;;;;;;1.88;72.04;100812.52;1892794;76;22120;-61
2021/12/06 03:04:34;;;;;;;18.80;9.40;;;;;;;1.91;72.01;100811.53;1857982;76;28306;-61
2021/12/06 03:07:28;;;;;;;17.05;7.40;;;;;;;2.04;71.79;100816.04;1873997;76;22133;-61
2021/12/06 03:09:58;;;;;;;17.45;7.87;;;;;;;2.03;71.58;100819.59;1874043;76;22116;-61
2021/12/06 03:12:50;;;;;;;19.52;8.28;;;;;;;1.99;71.49;100825.08;1873983;76;22156;-62
2021/12/06 03:15:22;;;;;;;17.17;7.87;;;;;;;1.99;71.54;100831.16;1892802;76;22147;-62
2021/12/06 03:17:54;;;;;;;20.32;8.10;;;;;;;1.92;71.59;100833.71;1874017;76;22542;-62
2021/12/06 03:20:45;;;;;;;16.95;7.85;;;;;;;1.94;71.53;100828.41;1892770;76;22159;-62
2021/12/06 03:23:17;;;;;;;18.55;8.03;;;;;;;1.99;71.54;100834.25;1874036;76;22133;-64
2021/12/06 03:26:08;;;;;;;15.40;7.40;;;;;;;2.00;71.37;100832.85;1874001;76;22121;-61
2021/12/06 03:28:42;;;;;;;16.80;7.62;;;;;;;1.99;71.35;100828.55;1892808;76;22553;-62
2021/12/06 03:31:34;;;;;;;17.35;7.37;;;;;;;1.99;71.31;100823.30;1874000;76;22145;-61
2021/12/06 03:34:06;;;;;;;19.77;8.00;;;;;;;1.94;71.22;100821.86;1874043;76;22121;-62
2021/12/06 03:36:39;;;;;;;19.12;7.80;;;;;;;1.90;71.30;100819.86;1874022;76;22558;-61
2021/12/06 03:39:35;;;;;;;17.98;7.72;;;;;;;1.87;71.33;100815.23;1892803;76;22141;-61
2021/12/06 03:42:09;;;;;;;18.48;8.08;;;;;;;1.84;71.44;100824.12;1892713;76;22145;-62
2021/12/06 03:45:00;;;;;;;16.35;7.40;;;;;;;1.83;71.60;100818.47;1873960;76;22175;-61
2021/12/06 03:47:32;;;;;;;20.88;9.20;;;;;;;1.84;71.64;100820.66;1874041;76;22133;-63
2021/12/06 03:50:06;;;;;;;24.52;10.20;;;;;;;1.86;71.70;100832.73;1874145;76;22133;-64
2021/12/06 03:52:38;;;;;;;23.02;9.13;;;;;;;1.86;71.65;100827.48;1874030;76;22558;-62
2021/12/06 03:55:10;;;;;;;20.02;9.03;;;;;;;1.87;71.55;100827.86;1892826;76;22132;-64
2021/12/06 03:58:03;;;;;;;20.77;9.28;;;;;;;1.87;71.62;100829.17;1874006;76;22120;-64
2021/12/06 04:00:35;;;;;;;22.32;10.23;;;;;;;1.91;71.60;100830.71;1874034;76;22129;-64
2021/12/06 04:03:27;;;;;;;18.95;8.85;;;;;;;1.97;71.56;100834.78;1873987;76;22133;-64
2021/12/06 04:05:59;;;;;;;20.95;9.08;;;;;;;1.93;71.35;100834.12;1892811;76;22148;-64
2021/12/06 04:08:31;;;;;;;18.37;8.38;;;;;;;1.87;71.49;100839.66;1892830;76;22139;-64
2021/12/06 04:11:41;;;;;;;19.90;8.23;;;;;;;1.87;71.58;100851.91;1879388;75;22221;-64
2021/12/06 04:14:13;;;;;;;18.48;8.20;;;;;;;1.79;71.70;100853.17;1892806;76;22112;-61
2021/12/06 04:17:05;;;;;;;19.67;7.95;;;;;;;1.75;71.96;100850.79;1874098;76;22124;-63
2021/12/06 04:19:36;;;;;;;19.82;8.38;;;;;;;1.75;72.01;100856.03;1874026;76;22546;-62
2021/12/06 04:22:08;;;;;;;18.32;8.75;;;;;;;1.73;72.08;100856.55;1892819;76;22120;-62
2021/12/06 04:24:40;;;;;;;19.98;9.30;;;;;;;1.72;72.12;100854.40;1874017;76;22136;-64
2021/12/06 04:27:14;;;;;;;21.12;9.53;;;;;;;1.67;72.30;100859.03;1892815;76;22140;-64
2021/12/06 04:30:07;;;;;;;20.15;9.10;;;;;;;1.70;72.46;100858.04;1873874;76;22164;-64
2021/12/06 04:32:39;;;;;;;20.77;8.88;;;;;;;1.70;72.49;100861.50;1890324;76;22160;-64
2021/12/06 04:35:30;;;;;;;20.12;9.03;;;;;;;1.67;72.60;100863.42;1873977;76;22587;-64
2021/12/06 04:38:03;;;;;;;20.30;9.35;;;;;;;1.62;72.81;100869.36;1892800;76;22153;-64
2021/12/06 04:40:55;;;;;;;18.40;8.05;;;;;;;1.64;72.99;100871.42;1892791;76;22128;-64
2021/12/06 04:43:26;;;;;;;19.07;9.03;;;;;;;1.66;73.08;100864.35;1874125;76;22146;-62
2021/12/06 04:45:58;;;;;;;19.05;9.15;;;;;;;1.64;73.10;100872.27;1874030;76;22144;-64
2021/12/06 04:48:30;;;;;;;19.30;9.15;;;;;;;1.64;73.18;100864.88;1871422;76;22117;-62
2021/12/06 04:51:21;;;;;;;18.32;8.13;;;;;;;1.61;73.38;100867.20;1873998;76;22566;-64
2021/12/06 04:53:53;;;;;;;18.70;7.95;;;;;;;1.57;73.46;100864.82;1890312;76;22144;-64
2021/12/06 04:56:52;;;;;;;16.52;8.03;;;;;;;1.53;73.70;100862.34;1874019;76;22142;-64
2021/12/06 04:59:32;;;;;;;19.17;7.78;;;;;;;1.51;73.92;100866.83;1873930;76;22128;-62
2021/12/06 05:02:29;;;;;;;19.10;7.75;;;;;;;1.50;74.10;100865.11;1892805;76;22136;-64
2021/12/06 05:05:28;;;;;;;19.97;9.27;;;;;;;1.49;74.37;100872.58;1858108;76;27887;-64
2021/12/06 05:08:28;;;;;;;17.85;7.85;;;;;;;1.60;74.21;100872.06;1865128;75;22181;-63
2021/12/06 05:11:10;;;;;;;18.05;7.60;;;;;;;1.63;74.21;100869.73;1892671;76;22128;-58
2021/12/06 05:14:02;;;;;;;17.30;8.05;;;;;;;1.62;74.71;100875.91;1873873;76;22132;-59
2021/12/06 05:16:36;;;;;;;20.20;9.00;;;;;;;1.67;75.93;100878.67;1874016;76;22579;-57
2021/12/06 05:19:08;;;;;;;16.45;7.75;;;;;;;1.80;76.46;100886.77;1873881;76;22550;-60
2021/12/06 05:22:00;;;;;;;18.82;8.18;;;;;;;1.97;78.23;100896.36;1873786;76;22136;-60
2021/12/06 05:24:31;;;;;;;15.70;7.10;;;;;;;2.35;79.43;100898.74;1892611;76;22160;-60
2021/12/06 05:27:28;;;;;;;18.67;7.65;;;;;;;2.68;77.45;100894.33;1873727;76;22186;-59
2021/12/06 05:30:00;;;;;;;17.48;7.65;;;;;;;2.69;75.25;100896.02;1892707;76;22174;-71
2021/12/06 05:32:34;;;;;;;18.05;8.60;;;;;;;2.63;74.46;100898.11;1892754;76;22119;-70
2021/12/06 05:35:24;;;;;;;17.45;7.85;;;;;;;2.59;73.88;100901.82;1873748;76;22136;-69
2021/12/06 05:37:58;;;;;;;17.17;7.95;;;;;;;2.52;73.47;100901.31;1873868;76;22566;-70
2021/12/06 05:40:33;;;;;;;16.15;7.70;;;;;;;2.45;73.24;100906.53;1873835;76;22217;-70
2021/12/06 05:43:24;;;;;;;20.25;9.65;;;;;;;2.37;73.13;100902.14;1874024;76;22140;-69
2021/12/06 05:45:56;;;;;;;23.47;11.88;;;;;;;2.30;73.20;100902.92;1873833;76;22172;-69
2021/12/06 05:48:28;;;;;;;21.17;10.48;;;;;;;2.29;73.25;100909.94;1873533;76;22160;-69
2021/12/06 05:51:20;;;;;;;22.13;10.08;;;;;;;2.29;73.16;100906.47;1892168;76;22597;-69
2021/12/06 05:53:58;;;;;;;23.75;11.30;;;;;;;2.26;73.12;100908.81;1872411;76;22200;-67
2021/12/06 05:56:30;;;;;;;22.85;11.65;;;;;;;2.26;73.17;100920.61;1889732;76;22176;-65
2021/12/06 05:59:02;;;;;;;26.73;13.00;;;;;;;2.26;73.15;100914.52;1891814;76;22765;-66
2021/12/06 06:02:14;;;;;;;22.25;10.68;;;;;;;2.27;73.23;100907.03;1873407;75;22250;-62
2021/12/06 06:04:47;;;;;;;19.30;9.60;;;;;;;2.27;73.31;100907.87;1873357;76;22601;-67
2021/12/06 06:07:38;;;;;;;22.73;11.68;;;;;;;2.25;73.25;100914.95;1892157;76;22151;-63
2021/12/06 06:10:10;;;;;;;21.20;9.58;;;;;;;2.24;73.33;100917.20;1870575;76;22145;-67
2021/12/06 06:13:03;;;;;;;19.02;8.83;;;;;;;2.23;73.42;100909.43;1892188;76;23654;-64
2021/12/06 06:15:36;;;;;;;20.65;10.20;;;;;;;2.24;73.45;100912.42;1873077;76;22208;-64
2021/12/06 06:18:10;;;;;;;23.20;10.98;;;;;;;2.22;73.41;100912.98;1891955;76;22156;-64
2021/12/06 06:20:46;;;;;;;21.55;8.98;;;;;;;2.16;73.54;100904.95;1872766;76;22651;-66
2021/12/06 06:23:18;;;;;;;22.35;12.13;;;;;;;2.14;73.73;100909.91;1856788;76;28411;-68
2021/12/06 06:26:09;;;;;;;23.12;12.33;;;;;;;2.19;73.60;100910.52;1872910;76;22650;-64
2021/12/06 06:28:42;;;;;;;44.08;26.52;;;;;;;2.16;73.86;100911.97;1872966;76;22164;-67
2021/12/06 06:31:15;;;;;;;35.90;20.97;;;;;;;2.15;74.04;100914.22;1870144;76;22212;-67
2021/12/06 06:33:47;;;;;;;27.30;15.35;;;;;;;2.16;74.32;100927.23;1873019;76;22230;-67
2021/12/06 06:36:19;;;;;;;21.42;11.30;;;;;;;2.13;74.35;100929.19;1870542;76;22658;-63
2021/12/06 06:38:51;;;;;;;21.33;10.75;;;;;;;2.09;74.56;100929.80;1867347;76;22160;-63
2021/12/06 06:41:42;;;;;;;28.00;13.80;;;;;;;2.10;74.66;100935.42;1873085;76;22229;-61
2021/12/06 06:44:15;;;;;;;25.48;12.60;;;;;;;2.10;74.67;100925.41;1866607;76;22193;-62
2021/12/06 06:46:48;;;;;;;24.55;12.30;;;;;;;2.02;74.68;100930.59;1873063;76;22184;-61
2021/12/06 06:49:38;;;;;;;21.52;10.08;;;;;;;1.95;74.84;100935.75;1873010;76;23315;-66
2021/12/06 06:52:10;;;;;;;25.88;12.30;;;;;;;1.87;74.91;100930.52;1872533;76;22168;-66
2021/12/06 06:54:43;;;;;;;23.77;11.65;;;;;;;1.84;74.98;100932.84;1872497;76;22198;-64
2021/12/06 06:57:15;;;;;;;27.22;12.68;;;;;;;1.83;74.93;100932.43;1873442;76;22161;-63
2021/12/06 06:59:47;;;;;;;23.60;11.63;;;;;;;1.80;75.10;100941.77;1892153;76;22160;-65
2021/12/06 07:02:19;;;;;;;24.50;12.98;;;;;;;1.80;75.33;100948.32;1873515;76;22161;-66
2021/12/06 07:04:51;;;;;;;23.73;13.10;;;;;;;1.80;75.43;100940.47;1872056;76;22292;-65
2021/12/06 07:07:23;;;;;;;29.65;16.73;;;;;;;1.79;75.35;100942.70;1873429;76;22582;-65
2021/12/06 07:10:02;;;;;;;25.30;13.38;;;;;;;1.84;75.44;100949.88;1872077;76;22582;-64
2021/12/06 07:12:41;;;;;;;22.25;10.78;;;;;;;1.88;75.27;100951.38;1873094;76;22204;-63
2021/12/06 07:15:33;;;;;;;20.70;9.28;;;;;;;1.92;75.26;100952.08;1872561;76;22759;-64
2021/12/06 07:18:05;;;;;;;17.07;7.17;;;;;;;1.97;75.15;100947.45;1873182;76;22212;-65
2021/12/06 07:20:37;;;;;;;19.37;8.40;;;;;;;1.92;75.04;100943.75;1891901;76;22213;-65
2021/12/06 07:23:10;;;;;;;29.85;18.23;;;;;;;1.89;75.06;100944.40;1873478;76;22590;-65
2021/12/06 07:25:42;;;;;;;34.18;21.33;;;;;;;1.87;75.24;100952.31;1892101;76;22637;-65
2021/12/06 07:28:14;;;;;;;35.55;22.35;;;;;;;1.91;75.40;100947.77;1872986;76;22637;-65
2021/12/06 07:30:47;;;;;;;27.73;15.32;;;;;;;1.94;75.33;100947.16;1870745;76;22208;-63
2021/12/06 07:33:19;;;;;;;24.90;12.03;;;;;;;1.91;75.30;100953.02;1873194;76;22160;-64
2021/12/06 07:35:51;;;;;;;19.77;9.30;;;;;;;1.92;75.50;100955.55;1873238;76;22216;-65
2021/12/06 07:38:23;;;;;;;18.82;8.98;;;;;;;1.91;75.58;100957.79;1873203;76;22631;-64
2021/12/06 07:40:56;;;;;;;19.73;8.63;;;;;;;1.90;75.53;100960.50;1870515;76;22156;-70
2021/12/06 07:43:28;;;;;;;21.52;9.85;;;;;;;1.86;75.64;100960.26;1872895;76;22609;-66
2021/12/06 07:46:00;;;;;;;21.17;10.03;;;;;;;1.88;76.13;100959.23;1873094;76;22208;-65
2021/12/06 07:48:32;;;;;;;19.70;8.80;;;;;;;1.96;76.37;100954.47;1873147;76;22177;-65
2021/12/06 07:51:25;;;;;;;16.35;7.80;;;;;;;2.04;76.42;100953.62;1873204;76;22194;-65
2021/12/06 07:53:58;;;;;;;20.23;9.60;;;;;;;2.12;76.46;100955.86;1873128;76;22661;-67
2021/12/06 07:56:31;;;;;;;19.70;9.15;;;;;;;2.18;76.43;100950.77;1891640;76;22172;-67
2021/12/06 07:59:03;;;;;;;19.00;8.70;;;;;;;2.24;76.24;100939.95;1891506;76;22204;-66
2021/12/06 08:01:55;;;;;;;18.25;7.75;;;;;;;2.28;75.99;100938.87;1873110;76;22305;-66
2021/12/06 08:04:28;;;;;;;18.73;8.08;;;;;;;2.27;75.74;100934.56;1873157;76;22157;-65
2021/12/06 08:06:59;;;;;;;19.62;8.85;;;;;;;2.30;75.84;100925.20;1872990;76;22156;-65
2021/12/06 08:09:32;;;;;;;15.15;6.95;;;;;;;2.32;75.62;100923.36;1892002;76;22614;-64
2021/12/06 08:12:05;;;;;;;14.15;6.62;;;;;;;2.31;75.09;100922.98;1870565;76;22225;-67
2021/12/06 08:14:56;;;;;;;13.22;6.05;;;;;;;2.26;74.95;100915.83;1873267;76;22153;-64
2021/12/06 08:17:28;;;;;;;19.23;9.38;;;;;;;2.25;75.13;100916.73;1857940;76;22220;-67
2021/12/06 08:20:18;;;;;;;15.08;6.70;;;;;;;2.30;75.29;100925.20;1891782;76;22224;-64
2021/12/06 08:22:50;;;;;;;14.25;6.55;;;;;;;2.29;75.13;100924.36;1870557;76;22190;-64
2021/12/06 08:25:22;;;;;;;16.73;7.35;;;;;;;2.26;74.94;100927.63;1873329;76;22241;-64
2021/12/06 08:27:54;;;;;;;17.12;7.12;;;;;;;2.21;74.98;100921.75;1873045;76;22611;-65
2021/12/06 08:30:46;;;;;;;15.23;6.97;;;;;;;2.19;74.79;100913.98;1881137;75;22236;-63
2021/12/06 08:33:18;;;;;;;16.12;7.62;;;;;;;2.16;75.06;100914.59;1870659;76;22214;-64
2021/12/06 08:35:54;;;;;;;20.10;9.15;;;;;;;2.14;75.24;100909.44;1892072;76;22191;-62
2021/12/06 08:38:45;;;;;;;17.25;8.10;;;;;;;2.16;75.30;100902.80;1891930;76;22195;-64
2021/12/06 08:41:21;;;;;;;16.30;7.00;;;;;;;2.14;75.00;100910.75;1873589;76;22205;-63
2021/12/06 08:43:54;;;;;;;18.62;8.90;;;;;;;2.13;75.20;100906.44;1891961;76;22612;-63
2021/12/06 08:46:30;;;;;;;21.80;9.10;;;;;;;2.17;75.29;100913.69;1870572;76;22218;-62
2021/12/06 08:49:05;;;;;;;18.40;9.07;;;;;;;2.16;75.14;100916.75;1857136;76;38695;-63
2021/12/06 08:51:49;;;;;;;20.85;9.85;;;;;;;2.27;75.16;100923.61;1873170;76;22234;-64
2021/12/06 08:54:29;;;;;;;23.62;11.50;;;;;;;2.30;75.00;100914.25;1873274;76;22642;-65
2021/12/06 08:57:02;;;;;;;20.55;9.15;;;;;;;2.27;75.06;100910.97;1891921;76;22611;-64
2021/12/06 08:59:35;;;;;;;18.07;8.25;;;;;;;2.23;75.21;100917.30;1872895;76;22192;-71
2021/12/06 09:02:26;;;;;;;19.95;10.25;;;;;;;2.19;75.14;100924.93;1868096;76;22164;-66
2021/12/06 09:04:59;;;;;;;16.95;7.53;;;;;;;2.18;75.40;100925.39;1873205;76;23094;-69
2021/12/06 09:07:48;;;;;;;15.70;7.03;;;;;;;2.20;75.13;100917.44;1865465;76;22179;-66
2021/12/06 09:10:23;;;;;;;19.20;8.10;;;;;;;2.18;75.18;100915.37;1870829;76;22184;-67
2021/12/06 09:12:55;;;;;;;29.18;13.22;;;;;;;2.17;75.45;100913.22;1873243;76;22605;-63
2021/12/06 09:15:46;;;;;;;25.77;12.37;;;;;;;2.18;75.53;100921.93;1873109;76;22188;-64
2021/12/06 09:18:24;;;;;;;20.88;9.75;;;;;;;2.16;75.61;100920.67;1869392;76;22174;-67
2021/12/06 09:20:57;;;;;;;22.60;10.43;;;;;;;2.15;75.68;100920.77;1873376;76;22241;-65
2021/12/06 09:23:50;;;;;;;20.57;10.08;;;;;;;2.09;75.78;100919.78;1873339;76;22615;-64
2021/12/06 09:26:23;;;;;;;16.85;7.67;;;;;;;2.07;76.10;100917.25;1870685;76;22168;-63
2021/12/06 09:28:57;;;;;;;17.98;7.95;;;;;;;2.09;76.16;100922.41;1873119;76;22204;-63
2021/12/06 09:31:29;;;;;;;18.42;8.23;;;;;;;2.09;76.14;100917.16;1873252;76;22220;-63
2021/12/06 09:34:21;;;;;;;21.17;9.38;;;;;;;2.10;76.19;100912.30;1873126;76;22184;-66
2021/12/06 09:36:54;;;;;;;21.12;9.13;;;;;;;2.12;76.35;100918.30;1873131;76;22208;-60
2021/12/06 09:39:27;;;;;;;18.85;9.28;;;;;;;2.12;76.27;100918.30;1872759;76;22169;-63
2021/12/06 09:42:00;;;;;;;18.40;8.75;;;;;;;2.11;76.38;100920.08;1892062;76;22593;-64
2021/12/06 09:44:51;;;;;;;16.05;7.50;;;;;;;2.12;76.36;100918.30;1873221;76;22630;-63
2021/12/06 09:47:23;;;;;;;21.48;9.68;;;;;;;2.16;76.27;100915.91;1873342;76;22217;-63
2021/12/06 09:49:55;;;;;;;23.42;11.48;;;;;;;2.19;76.19;100918.37;1891910;76;22181;-61
2021/12/06 09:52:27;;;;;;;28.60;14.68;;;;;;;2.23;76.25;100918.60;1873221;76;22156;-64
2021/12/06 09:55:18;;;;;;;20.62;10.13;;;;;;;2.27;76.15;100919.67;1868907;76;22199;-69
2021/12/06 09:57:53;;;;;;;22.50;11.45;;;;;;;2.31;76.02;100920.37;1892018;76;22192;-60
2021/12/06 10:00:28;;;;;;;21.48;9.73;;;;;;;2.33;75.84;100920.27;1872997;76;22212;-70
2021/12/06 10:03:02;;;;;;;20.45;9.73;;;;;;;2.29;75.60;100924.83;1873011;76;22168;-68
2021/12/06 10:05:36;;;;;;;24.23;11.38;;;;;;;2.26;75.76;100932.41;1873486;76;22149;-64
2021/12/06 10:08:32;;;;;;;21.45;9.93;;;;;;;2.28;75.72;100934.47;1873241;76;22174;-64
2021/12/06 10:11:06;;;;;;;19.15;8.38;;;;;;;2.28;75.74;100941.48;1873594;76;22204;-66
2021/12/06 10:13:39;;;;;;;19.52;8.78;;;;;;;2.31;75.89;100945.27;1873537;76;22177;-68
2021/12/06 10:16:11;;;;;;;20.97;9.85;;;;;;;2.35;75.97;100945.94;1870928;76;22578;-62
2021/12/06 10:19:05;;;;;;;18.60;8.43;;;;;;;2.38;75.69;100941.86;1892376;76;22220;-62
2021/12/06 10:21:37;;;;;;;17.35;8.55;;;;;;;2.36;75.70;100945.87;1873511;76;22185;-65
2021/12/06 10:24:12;;;;;;;20.00;9.08;;;;;;;2.36;75.81;100949.81;1892101;76;22220;-64
2021/12/06 10:26:44;;;;;;;17.73;8.20;;;;;;;2.39;75.92;100950.94;1873440;76;22197;-61
2021/12/06 10:29:23;;;;;;;19.87;9.40;;;;;;;2.39;75.94;100950.94;1891972;76;22644;-63
2021/12/06 10:31:55;;;;;;;18.07;7.72;;;;;;;2.39;75.87;100945.70;1868656;76;22152;-61
2021/12/06 10:34:27;;;;;;;18.95;8.80;;;;;;;2.36;76.02;100953.74;1873307;76;22220;-62
2021/12/06 10:37:01;;;;;;;22.37;9.98;;;;;;;2.33;76.26;100946.50;1868699;76;22164;-61
2021/12/06 10:39:37;;;;;;;16.02;7.40;;;;;;;2.34;76.42;100945.56;1873100;76;22172;-62
2021/12/06 10:42:38;;;;;;;18.73;8.73;;;;;;;2.34;76.45;100949.49;1873423;76;22597;-63
2021/12/06 10:45:14;;;;;;;23.05;10.32;;;;;;;2.33;76.44;100939.47;1870647;76;22178;-62
2021/12/06 10:48:11;;;;;;;20.12;9.18;;;;;;;2.33;76.37;100935.54;1873675;76;20373;-61
2021/12/06 10:51:00;;;;;;;18.85;8.63;;;;;;;2.35;76.43;100934.14;1873513;76;22178;-61
2021/12/06 10:53:42;;;;;;;19.50;9.35;;;;;;;2.34;76.56;100935.92;1873709;76;22589;-60
2021/12/06 10:56:42;;;;;;;23.20;11.93;;;;;;;2.32;76.50;100940.88;1892055;76;22199;-64
2021/12/06 10:59:36;;;;;;;26.10;12.68;;;;;;;2.31;76.71;100946.59;1892156;76;22167;-64
2021/12/06 11:02:11;;;;;;;23.42;12.40;;;;;;;2.32;76.80;100953.52;1867312;76;22212;-64
2021/12/06 11:05:24;;;;;;;22.48;10.68;;;;;;;2.32;76.78;100948.27;1855048;76;22208;-61
2021/12/06 11:08:12;;;;;;;19.25;9.03;;;;;;;2.33;76.77;100951.73;1873251;76;22594;-62
2021/12/06 11:11:16;;;;;;;25.12;13.38;;;;;;;2.35;76.75;100953.34;1892158;76;20120;-61
2021/12/06 11:14:22;;;;;;;23.60;11.95;;;;;;;2.36;76.70;100945.87;1892334;76;22164;-60
2021/12/06 11:17:00;;;;;;;24.47;12.15;;;;;;;2.34;76.79;100945.56;1870434;76;22651;-62
2021/12/06 11:19:54;;;;;;;21.35;10.03;;;;;;;2.34;76.91;100942.94;1873383;76;22177;-61
2021/12/06 11:22:26;;;;;;;24.43;11.05;;;;;;;2.36;76.86;100938.02;1892198;76;22200;-66
2021/12/06 11:28:05;;;;;;;23.70;10.93;;;;;;;2.37;76.88;100943.63;1869443;76;22236;-64
2021/12/06 11:30:38;;;;;;;37.50;19.77;;;;;;;2.39;76.86;100946.16;1872990;76;22606;-61
2021/12/06 11:33:16;;;;;;;38.63;20.23;;;;;;;2.41;76.90;100947.79;1872592;76;22614;-63
2021/12/06 11:36:23;;;;;;;29.32;14.75;;;;;;;2.48;77.00;100943.05;1873066;76;22616;-64
2021/12/06 11:39:19;;;;;;;25.30;12.35;;;;;;;2.52;76.75;100953.30;1873103;76;22663;-65
2021/12/06 11:41:56;;;;;;;23.25;10.82;;;;;;;2.47;76.62;100960.57;1873239;76;22166;-65
2021/12/06 11:44:49;;;;;;;27.60;13.38;;;;;;;2.43;76.73;100955.09;1867768;76;22544;-63
2021/12/06 11:47:23;;;;;;;25.57;11.65;;;;;;;2.40;76.95;100950.04;1892023;76;22176;-62
2021/12/06 11:50:00;;;;;;;31.30;12.40;;;;;;;2.40;76.90;100939.55;1873262;76;22178;-60
2021/12/06 11:52:34;;;;;;;37.78;15.53;;;;;;;2.43;76.88;100934.12;1849556;76;22215;-62
2021/12/06 11:55:38;;;;;;;31.55;13.62;;;;;;;2.43;76.95;100937.21;1853711;76;22171;-62
2021/12/06 11:58:25;;;;;;;31.93;15.10;;;;;;;2.43;77.09;100947.23;1873227;76;22186;-59
2021/12/06 12:01:18;;;;;;;29.92;13.62;;;;;;;2.47;77.03;100939.59;1872984;76;22168;-62
2021/12/06 12:03:59;;;;;;;29.27;13.88;;;;;;;2.49;76.89;100942.13;1873194;76;22598;-65
2021/12/06 12:06:37;;;;;;;32.75;16.73;;;;;;;2.50;76.94;100940.75;1872953;76;22204;-65
2021/12/06 12:09:25;;;;;;;33.80;15.93;;;;;;;2.54;76.91;100947.97;1873151;76;23208;-64
2021/12/06 12:12:13;;;;;;;34.83;17.05;;;;;;;2.57;76.81;100955.69;1892155;76;22177;-65
2021/12/06 12:17:33;;;;;;;32.53;14.65;;;;;;;2.69;76.72;100949.80;1873192;76;22594;-61
2021/12/06 12:20:10;;;;;;;35.08;16.73;;;;;;;2.78;76.60;100947.14;1873058;76;22630;-63
2021/12/06 12:22:48;;;;;;;43.13;23.20;;;;;;;2.83;76.42;100946.42;1870412;76;22196;-63
2021/12/06 12:30:55;;;;;;;29.77;15.72;;;;;;;2.90;76.09;100960.05;1857273;76;38719;-61
2021/12/06 12:33:27;;;;;;;34.55;16.05;;;;;;;2.95;75.65;100961.48;1873462;76;22157;-66
2021/12/06 12:36:07;;;;;;;35.25;16.55;;;;;;;2.95;75.39;100967.20;1891972;76;22172;-63
2021/12/06 12:38:40;;;;;;;34.98;17.20;;;;;;;2.88;75.55;100962.77;1865354;76;22160;-64
2021/12/06 12:41:14;;;;;;;39.70;20.57;;;;;;;2.81;75.61;100955.67;1873176;76;22201;-66